createdAt,value
2023-05-19T00:00:09.299Z,1.77
2023-05-19T00:02:37.089Z,2.00
2023-05-19T00:05:05.598Z,2.40
2023-05-19T00:07:36.591Z,1.83
2023-05-19T00:10:04.780Z,1.88
2023-05-19T00:12:32.298Z,1.72
2023-05-19T00:15:01.650Z,2.10
2023-05-19T00:20:13.947Z,1.92
2023-05-19T00:22:41.197Z,1.69
2023-05-19T00:25:09.196Z,1.96
2023-05-19T00:27:36.388Z,1.10
2023-05-19T00:30:06.206Z,1.22
2023-05-19T00:32:33.321Z,1.47
2023-05-19T00:35:00.618Z,1.34
2023-05-19T00:37:27.742Z,1.28
2023-05-19T00:39:54.961Z,1.37
2023-05-19T00:42:22.081Z,1.31
2023-05-19T00:44:49.309Z,1.49
2023-05-19T00:47:17.884Z,1.61
2023-05-19T00:49:45.039Z,1.52
2023-05-19T00:52:12.297Z,1.71
2023-05-19T00:54:39.627Z,1.51
2023-05-19T00:57:07.334Z,1.63
2023-05-19T00:59:34.818Z,1.51
2023-05-19T01:02:02.356Z,1.50
2023-05-19T01:04:33.063Z,1.53
2023-05-19T01:07:01.131Z,1.69
2023-05-19T01:09:28.738Z,1.53
2023-05-19T01:11:56.244Z,1.33
2023-05-19T01:14:23.741Z,1.48
2023-05-19T01:17:01.216Z,1.42
2023-05-19T01:19:51.065Z,1.69
2023-05-19T01:22:40.220Z,1.56
2023-05-19T01:25:45.118Z,1.55
2023-05-19T01:28:48.602Z,1.75
2023-05-19T01:31:19.533Z,1.52
2023-05-19T01:33:49.185Z,1.60
2023-05-19T01:36:19.558Z,1.47
2023-05-19T01:38:51.225Z,1.66
2023-05-19T01:41:20.005Z,1.66
2023-05-19T01:43:48.557Z,1.76
2023-05-19T01:46:19.007Z,1.44
2023-05-19T01:48:47.703Z,1.25
2023-05-19T01:51:14.832Z,1.35
2023-05-19T01:53:42.086Z,1.70
2023-05-19T01:56:09.485Z,1.37
2023-05-19T01:58:45.605Z,1.42
2023-05-19T02:01:29.476Z,1.36
2023-05-19T02:04:15.039Z,1.52
2023-05-19T02:06:49.987Z,1.39
2023-05-19T02:09:25.663Z,1.39
2023-05-19T02:12:00.394Z,1.46
2023-05-19T02:14:33.160Z,1.50
2023-05-19T02:17:05.523Z,1.58
2023-05-19T02:19:35.570Z,1.35
2023-05-19T02:22:02.801Z,1.62
2023-05-19T02:24:30.165Z,1.35
2023-05-19T02:26:57.381Z,1.39
2023-05-19T02:29:24.583Z,1.42
2023-05-19T02:31:51.801Z,1.24
2023-05-19T02:34:20.622Z,1.32
2023-05-19T02:36:47.819Z,1.43
2023-05-19T02:39:14.926Z,1.66
2023-05-19T02:41:42.041Z,1.33
2023-05-19T02:44:09.195Z,1.10
2023-05-19T02:46:36.479Z,1.35
2023-05-19T02:49:03.788Z,1.45
2023-05-19T02:51:32.438Z,1.45
2023-05-19T02:53:59.558Z,1.46
2023-05-19T02:56:26.759Z,1.57
2023-05-19T02:58:53.883Z,1.45
2023-05-19T03:01:21.002Z,1.53
2023-05-19T03:03:48.253Z,1.47
2023-05-19T03:06:15.697Z,1.55
2023-05-19T03:08:44.259Z,1.43
2023-05-19T03:11:11.420Z,1.40
2023-05-19T03:13:38.685Z,1.32
2023-05-19T03:16:06.014Z,1.28
2023-05-19T03:18:33.283Z,1.46
2023-05-19T03:21:00.663Z,1.72
2023-05-19T03:23:27.850Z,1.45
2023-05-19T03:25:56.459Z,1.42
2023-05-19T03:28:23.682Z,1.45
2023-05-19T03:30:51.038Z,1.40
2023-05-19T03:33:18.519Z,1.46
2023-05-19T03:35:46.249Z,1.49
2023-05-19T03:38:13.445Z,1.17
2023-05-19T03:40:40.915Z,1.33
2023-05-19T03:43:09.502Z,1.44
2023-05-19T03:45:36.713Z,1.52
2023-05-19T03:48:04.391Z,1.62
2023-05-19T03:50:32.175Z,1.35
2023-05-19T03:52:59.446Z,1.37
2023-05-19T03:55:26.953Z,1.39
2023-05-19T03:57:54.190Z,1.39
2023-05-19T04:00:22.963Z,1.37
2023-05-19T04:02:50.157Z,1.34
2023-05-19T04:05:17.557Z,1.34
2023-05-19T04:07:44.744Z,1.65
2023-05-19T04:10:12.871Z,1.32
2023-05-19T04:12:40.263Z,1.56
2023-05-19T04:15:08.746Z,1.22
2023-05-19T04:17:37.672Z,1.45
2023-05-19T04:20:05.923Z,1.41
2023-05-19T04:22:33.088Z,1.50
2023-05-19T04:25:00.243Z,1.49
2023-05-19T04:27:27.604Z,1.56
2023-05-19T04:29:54.822Z,1.59
2023-05-19T04:32:22.107Z,1.49
2023-05-19T04:34:50.783Z,1.55
2023-05-19T04:37:18.115Z,1.66
2023-05-19T04:39:45.481Z,1.55
2023-05-19T04:42:12.745Z,1.35
2023-05-19T04:44:40.177Z,1.46
2023-05-19T04:47:07.879Z,1.57
2023-05-19T04:49:35.526Z,1.73
2023-05-19T04:52:04.784Z,1.48
2023-05-19T04:54:31.925Z,1.62
2023-05-19T04:56:59.046Z,1.46
2023-05-19T04:59:26.271Z,1.37
2023-05-19T05:01:53.543Z,1.51
2023-05-19T05:04:20.685Z,1.65
2023-05-19T05:06:48.166Z,1.68
2023-05-19T05:09:17.824Z,1.63
2023-05-19T05:11:45.984Z,1.63
2023-05-19T05:14:13.856Z,1.73
2023-05-19T05:16:41.732Z,1.77
2023-05-19T05:19:09.768Z,1.32
2023-05-19T05:21:37.798Z,1.57
2023-05-19T05:24:05.900Z,1.60
2023-05-19T05:26:36.040Z,1.35
2023-05-19T05:29:03.565Z,1.69
2023-05-19T05:31:30.838Z,1.59
2023-05-19T05:33:58.409Z,1.64
2023-05-19T05:36:25.701Z,1.65
2023-05-19T05:38:52.799Z,1.51
2023-05-19T05:41:19.948Z,1.23
2023-05-19T05:43:48.576Z,1.47
2023-05-19T05:46:15.833Z,1.56
2023-05-19T05:48:43.678Z,1.65
2023-05-19T05:51:11.317Z,1.60
2023-05-19T05:53:42.258Z,1.60
2023-05-19T05:56:11.396Z,2.04
2023-05-19T05:58:38.560Z,1.63
2023-05-19T06:01:07.423Z,1.54
2023-05-19T06:03:34.815Z,1.64
2023-05-19T06:06:02.115Z,1.65
2023-05-19T06:08:29.401Z,1.54
2023-05-19T06:10:56.557Z,1.49
2023-05-19T06:13:23.711Z,1.83
2023-05-19T06:15:51.537Z,1.60
2023-05-19T06:18:20.082Z,1.50
2023-05-19T06:20:47.325Z,1.37
2023-05-19T06:23:14.517Z,1.50
2023-05-19T06:25:41.606Z,1.54
2023-05-19T06:28:08.764Z,1.49
2023-05-19T06:30:36.102Z,1.72
2023-05-19T06:33:03.751Z,1.74
2023-05-19T06:35:32.470Z,1.41
2023-05-19T06:37:59.743Z,1.35
2023-05-19T06:40:26.946Z,1.36
2023-05-19T06:42:54.024Z,1.51
2023-05-19T06:45:21.245Z,1.51
2023-05-19T06:47:48.587Z,1.57
2023-05-19T06:50:16.205Z,1.52
2023-05-19T06:52:44.820Z,1.37
2023-05-19T06:55:11.923Z,1.40
2023-05-19T06:57:39.285Z,1.29
2023-05-19T07:00:08.001Z,1.42
2023-05-19T07:02:35.211Z,1.49
2023-05-19T07:05:02.721Z,1.43
2023-05-19T07:07:29.884Z,1.31
2023-05-19T07:09:58.550Z,1.29
2023-05-19T07:12:25.989Z,1.26
2023-05-19T07:14:53.358Z,1.33
2023-05-19T07:17:22.958Z,1.49
2023-05-19T07:19:50.149Z,1.51
2023-05-19T07:22:17.411Z,1.45
2023-05-19T07:24:44.794Z,1.17
2023-05-19T07:27:13.444Z,1.27
2023-05-19T07:29:40.668Z,1.47
2023-05-19T07:32:07.909Z,1.45
2023-05-19T07:34:35.288Z,1.15
2023-05-19T07:37:02.411Z,1.35
2023-05-19T07:39:29.828Z,1.42
2023-05-19T07:41:57.396Z,1.30
2023-05-19T07:44:26.229Z,1.41
2023-05-19T07:46:53.587Z,1.64
2023-05-19T07:49:20.807Z,1.53
2023-05-19T07:51:48.234Z,1.46
2023-05-19T07:54:15.800Z,1.54
2023-05-19T07:56:43.056Z,1.30
2023-05-19T07:59:10.286Z,1.62
2023-05-19T08:01:38.949Z,1.63
2023-05-19T08:04:06.422Z,1.51
2023-05-19T08:06:33.925Z,1.64
2023-05-19T08:09:01.244Z,1.65
2023-05-19T08:11:28.385Z,1.47
2023-05-19T08:13:55.926Z,1.53
2023-05-19T08:16:23.357Z,2.03
2023-05-19T08:18:52.086Z,1.46
2023-05-19T08:21:19.254Z,1.46
2023-05-19T08:23:46.431Z,1.33
2023-05-19T08:26:13.630Z,1.52
2023-05-19T08:28:40.707Z,1.46
2023-05-19T08:31:07.962Z,1.58
2023-05-19T08:33:35.091Z,1.15
2023-05-19T08:36:04.520Z,1.51
2023-05-19T08:38:31.654Z,1.61
2023-05-19T08:40:58.911Z,1.34
2023-05-19T08:43:26.498Z,1.30
2023-05-19T08:45:55.051Z,1.61
2023-05-19T08:48:23.389Z,1.59
2023-05-19T08:51:03.056Z,1.46
2023-05-19T08:53:37.188Z,1.52
2023-05-19T08:56:11.272Z,1.32
2023-05-19T08:58:40.275Z,1.27
2023-05-19T09:01:09.653Z,1.49
2023-05-19T09:03:38.275Z,1.38
2023-05-19T09:06:07.138Z,1.21
2023-05-19T09:08:35.820Z,1.20
2023-05-19T09:11:03.030Z,1.45
2023-05-19T09:13:30.467Z,1.60
2023-05-19T09:15:58.790Z,1.54
2023-05-19T09:18:27.246Z,1.34
2023-05-19T09:20:58.268Z,1.50
2023-05-19T09:23:28.047Z,1.22
2023-05-19T09:25:57.712Z,1.43
2023-05-19T09:28:26.165Z,1.71
2023-05-19T09:31:00.553Z,1.64
2023-05-19T09:33:28.411Z,1.76
2023-05-19T09:35:55.686Z,1.84
2023-05-19T09:38:24.275Z,1.64
2023-05-19T09:40:52.684Z,1.82
2023-05-19T09:43:21.626Z,1.95
2023-05-19T09:45:48.897Z,1.70
2023-05-19T09:48:16.106Z,1.44
2023-05-19T09:50:44.087Z,2.17
2023-05-19T09:53:14.088Z,1.82
2023-05-19T09:55:41.488Z,1.44
2023-05-19T09:58:09.977Z,1.47
2023-05-19T10:00:40.649Z,1.65
2023-05-19T10:03:09.830Z,1.63
2023-05-19T10:05:37.886Z,1.43
2023-05-19T10:08:06.685Z,1.44
2023-05-19T10:10:34.509Z,1.44
2023-05-19T10:13:05.713Z,1.45
2023-05-19T10:15:40.809Z,1.64
2023-05-19T10:18:15.527Z,1.59
2023-05-19T10:20:45.766Z,1.56
2023-05-19T10:23:13.128Z,1.58
2023-05-19T10:25:42.431Z,1.46
2023-05-19T10:28:14.072Z,1.51
2023-05-19T10:30:45.083Z,1.51
2023-05-19T10:33:16.590Z,1.54
2023-05-19T10:36:02.607Z,1.76
2023-05-19T10:38:37.587Z,1.61
2023-05-19T10:41:11.657Z,1.65
2023-05-19T10:43:59.691Z,1.54
2023-05-19T10:46:27.964Z,1.61
2023-05-19T10:48:56.610Z,1.38
2023-05-19T10:51:31.058Z,1.80
2023-05-19T10:53:58.448Z,1.32
2023-05-19T10:56:29.594Z,1.42
2023-05-19T10:58:57.226Z,1.50
2023-05-19T11:01:31.542Z,1.35
2023-05-19T11:04:06.569Z,1.50
2023-05-19T11:06:34.930Z,1.55
2023-05-19T11:09:10.172Z,1.62
2023-05-19T11:11:48.634Z,1.64
2023-05-19T11:14:18.510Z,1.56
2023-05-19T11:16:48.076Z,1.56
2023-05-19T11:19:25.616Z,1.88
2023-05-19T11:21:53.730Z,1.59
2023-05-19T11:24:43.834Z,1.75
2023-05-19T11:27:23.048Z,1.56
2023-05-19T11:29:51.289Z,2.13
2023-05-19T11:32:20.059Z,2.08
2023-05-19T11:34:49.584Z,2.00
2023-05-19T11:37:16.905Z,2.04
2023-05-19T11:39:46.318Z,1.71
2023-05-19T11:42:14.196Z,1.47
2023-05-19T11:44:41.441Z,2.01
2023-05-19T11:47:09.268Z,1.65
2023-05-19T11:49:36.573Z,1.34
2023-05-19T11:52:05.828Z,1.67
2023-05-19T11:54:35.070Z,1.21
2023-05-19T11:57:04.029Z,1.20
2023-05-19T11:59:34.150Z,1.27
2023-05-19T12:02:14.509Z,1.16
2023-05-19T12:04:41.924Z,1.24
2023-05-19T12:07:11.548Z,1.25
2023-05-19T12:09:38.850Z,1.65
2023-05-19T12:12:06.460Z,1.34
2023-05-19T12:14:34.117Z,1.16
2023-05-19T12:17:10.845Z,1.21
2023-05-19T12:19:38.529Z,1.37
2023-05-19T12:22:08.124Z,1.40
2023-05-19T12:24:38.408Z,1.18
2023-05-19T12:27:07.420Z,1.32
2023-05-19T12:29:34.673Z,1.31
2023-05-19T12:32:03.252Z,1.23
2023-05-19T12:34:30.767Z,1.15
2023-05-19T12:36:58.104Z,1.16
2023-05-19T12:39:26.907Z,1.13
2023-05-19T12:42:01.865Z,0.92
2023-05-19T12:44:29.149Z,1.10
2023-05-19T12:46:57.787Z,0.97
2023-05-19T12:49:24.970Z,1.17
2023-05-19T12:51:53.208Z,0.99
2023-05-19T12:54:21.532Z,1.19
2023-05-19T12:56:52.590Z,1.08
2023-05-19T12:59:37.348Z,0.97
2023-05-19T13:02:05.650Z,1.00
2023-05-19T13:04:32.899Z,0.87
2023-05-19T13:07:00.043Z,1.01
2023-05-19T13:09:27.347Z,0.93
2023-05-19T13:11:54.479Z,1.07
2023-05-19T13:14:21.911Z,1.12
2023-05-19T13:16:50.738Z,0.92
2023-05-19T13:21:50.355Z,0.95
2023-05-19T13:24:17.555Z,0.99
2023-05-19T13:26:45.069Z,1.10
2023-05-19T13:29:12.272Z,0.95
2023-05-19T13:31:39.542Z,0.89
2023-05-19T13:34:08.276Z,0.89
2023-05-19T13:36:35.500Z,1.06
2023-05-19T13:39:02.749Z,0.80
2023-05-19T13:41:29.948Z,1.06
2023-05-19T13:43:58.587Z,0.96
2023-05-19T13:46:36.612Z,0.98
2023-05-19T13:49:12.591Z,0.84
2023-05-19T13:51:42.575Z,0.89
2023-05-19T13:54:09.830Z,1.03
2023-05-19T13:56:37.091Z,1.06
2023-05-19T13:59:04.370Z,1.06
2023-05-19T14:01:31.716Z,1.25
2023-05-19T14:03:59.037Z,0.86
2023-05-19T14:06:28.483Z,0.95
2023-05-19T14:08:55.730Z,0.97
2023-05-19T14:11:22.910Z,0.86
2023-05-19T14:13:51.861Z,0.96
2023-05-19T14:16:20.439Z,1.04
2023-05-19T14:18:49.225Z,1.08
2023-05-19T14:21:16.489Z,1.00
2023-05-19T14:23:45.108Z,1.12
2023-05-19T14:26:12.402Z,0.95
2023-05-19T14:28:39.609Z,1.07
2023-05-19T14:31:06.770Z,0.99
2023-05-19T14:33:35.642Z,0.92
2023-05-19T14:36:03.246Z,0.91
2023-05-19T14:38:30.537Z,1.39
2023-05-19T14:40:59.205Z,1.03
2023-05-19T14:43:26.613Z,0.99
2023-05-19T14:45:53.885Z,1.17
2023-05-19T14:48:21.218Z,1.02
2023-05-19T14:50:48.714Z,0.91
2023-05-19T14:53:16.411Z,1.07
2023-05-19T14:55:43.730Z,1.18
2023-05-19T14:58:26.942Z,1.09
2023-05-19T15:00:58.147Z,0.84
2023-05-19T15:03:25.549Z,0.92
2023-05-19T15:05:52.756Z,1.07
2023-05-19T15:08:20.227Z,0.98
2023-05-19T15:10:48.836Z,0.98
2023-05-19T15:13:17.764Z,1.03
2023-05-19T15:15:44.977Z,1.14
2023-05-19T15:18:13.889Z,1.08
2023-05-19T15:20:41.167Z,0.99
2023-05-19T15:23:08.429Z,0.95
2023-05-19T15:25:35.631Z,1.01
2023-05-19T15:28:03.100Z,1.19
2023-05-19T15:30:31.916Z,1.33
2023-05-19T15:32:59.150Z,1.31
2023-05-19T15:35:26.604Z,1.51
2023-05-19T15:37:53.631Z,1.43
2023-05-19T15:40:21.065Z,1.41
2023-05-19T15:42:48.228Z,1.30
2023-05-19T15:45:16.148Z,1.42
2023-05-19T15:47:44.929Z,1.45
2023-05-19T15:50:13.936Z,1.42
2023-05-19T15:52:42.472Z,1.40
2023-05-19T15:55:10.520Z,1.37
2023-05-19T15:57:37.764Z,1.52
2023-05-19T16:00:06.258Z,1.51
2023-05-19T16:02:33.495Z,1.51
2023-05-19T16:05:02.150Z,1.47
2023-05-19T16:07:29.331Z,1.55
2023-05-19T16:09:56.632Z,1.51
2023-05-19T16:12:23.912Z,1.50
2023-05-19T16:14:51.071Z,1.62
2023-05-19T16:17:18.410Z,1.65
2023-05-19T16:19:45.602Z,1.51
2023-05-19T16:22:14.425Z,1.65
2023-05-19T16:24:41.757Z,1.69
2023-05-19T16:27:09.253Z,1.43
2023-05-19T16:29:36.594Z,1.44
2023-05-19T16:32:04.311Z,1.32
2023-05-19T16:34:31.775Z,1.66
2023-05-19T16:36:59.031Z,1.55
2023-05-19T16:39:27.630Z,1.61
2023-05-19T16:41:54.785Z,1.63
2023-05-19T16:44:21.990Z,1.60
2023-05-19T16:46:49.155Z,1.40
2023-05-19T16:49:16.377Z,1.49
2023-05-19T16:51:43.689Z,1.44
2023-05-19T16:54:10.898Z,1.66
2023-05-19T16:56:39.730Z,1.53
2023-05-19T16:59:10.937Z,1.54
2023-05-19T17:01:38.260Z,1.50
2023-05-19T17:04:05.883Z,1.61
2023-05-19T17:06:33.192Z,1.43
2023-05-19T17:09:00.438Z,1.50
2023-05-19T17:11:28.078Z,1.76
2023-05-19T17:13:56.757Z,1.77
2023-05-19T17:16:24.083Z,1.65
2023-05-19T17:18:52.213Z,1.86
2023-05-19T17:21:19.428Z,1.90
2023-05-19T17:23:46.677Z,1.72
2023-05-19T17:26:13.896Z,1.63
2023-05-19T17:28:40.969Z,1.49
2023-05-19T17:31:12.880Z,1.69
2023-05-19T17:33:40.895Z,1.64
2023-05-19T17:36:08.872Z,1.81
2023-05-19T17:38:36.129Z,1.71
2023-05-19T17:41:03.500Z,1.65
2023-05-19T17:43:30.870Z,1.72
2023-05-19T17:46:00.295Z,1.44
2023-05-19T17:48:29.970Z,1.72
2023-05-19T17:50:57.328Z,1.58
2023-05-19T17:53:25.369Z,1.53
2023-05-19T17:55:57.440Z,1.80
2023-05-19T17:58:25.762Z,1.68
2023-05-19T18:00:54.008Z,1.50
2023-05-19T18:03:22.024Z,1.70
2023-05-19T18:05:51.632Z,1.78
2023-05-19T18:08:19.412Z,1.78
2023-05-19T18:10:47.851Z,1.79
2023-05-19T18:13:15.033Z,1.91
2023-05-19T18:15:43.397Z,1.71
2023-05-19T18:18:10.842Z,1.62
2023-05-19T18:20:38.247Z,1.80
2023-05-19T18:23:07.011Z,1.74
2023-05-19T18:25:35.210Z,1.78
2023-05-19T18:28:02.556Z,1.82
2023-05-19T18:30:29.805Z,1.90
2023-05-19T18:32:57.154Z,1.62
2023-05-19T18:35:24.449Z,1.53
2023-05-19T18:37:55.094Z,1.71
2023-05-19T18:40:24.236Z,1.98
2023-05-19T18:42:51.441Z,1.67
2023-05-19T18:45:18.810Z,1.72
2023-05-19T18:47:46.230Z,1.79
2023-05-19T18:50:13.587Z,1.83
2023-05-19T18:52:41.131Z,1.82
2023-05-19T18:55:09.551Z,1.57
2023-05-19T18:57:38.238Z,1.58
2023-05-19T19:00:07.329Z,1.71
2023-05-19T19:02:34.673Z,1.75
2023-05-19T19:05:03.071Z,1.66
2023-05-19T19:07:30.248Z,1.79
2023-05-19T19:09:57.470Z,1.71
2023-05-19T19:12:24.644Z,1.85
2023-05-19T19:14:53.251Z,1.88
2023-05-19T19:17:20.593Z,1.89
2023-05-19T19:19:47.982Z,1.86
2023-05-19T19:22:15.530Z,2.03
2023-05-19T19:24:42.790Z,1.84
2023-05-19T19:27:10.358Z,1.90
2023-05-19T19:29:37.673Z,1.74
2023-05-19T19:32:07.504Z,2.03
2023-05-19T19:34:34.811Z,1.80
2023-05-19T19:37:02.052Z,2.08
2023-05-19T19:39:29.373Z,2.22
2023-05-19T19:41:56.831Z,2.08
2023-05-19T19:44:23.995Z,2.22
2023-05-19T19:46:51.403Z,1.93
2023-05-19T19:49:20.209Z,2.30
2023-05-19T19:51:47.339Z,2.44
2023-05-19T19:54:14.551Z,2.38
2023-05-19T19:56:41.772Z,2.24
2023-05-19T19:59:08.865Z,2.54
2023-05-19T20:01:36.199Z,2.80
2023-05-19T20:04:03.562Z,2.70
2023-05-19T20:06:32.380Z,2.49
2023-05-19T20:08:59.577Z,2.52
2023-05-19T20:11:26.815Z,2.44
2023-05-19T20:13:53.936Z,2.55
2023-05-19T20:16:21.185Z,2.65
2023-05-19T20:18:48.678Z,2.29
2023-05-19T20:21:15.893Z,2.41
2023-05-19T20:23:44.490Z,2.44
2023-05-19T20:26:13.076Z,2.65
2023-05-19T20:28:41.032Z,2.60
2023-05-19T20:31:08.491Z,2.73
2023-05-19T20:33:35.892Z,2.48
2023-05-19T20:36:03.185Z,2.50
2023-05-19T20:38:32.020Z,2.69
2023-05-19T20:41:00.792Z,2.79
2023-05-19T20:43:28.063Z,2.41
2023-05-19T20:45:55.544Z,2.72
2023-05-19T20:48:22.823Z,2.59
2023-05-19T20:50:50.790Z,2.58
2023-05-19T20:53:18.715Z,2.75
2023-05-19T20:55:46.321Z,2.59
2023-05-19T20:58:15.211Z,2.42
2023-05-19T21:00:42.450Z,2.63
2023-05-19T21:03:09.827Z,2.49
2023-05-19T21:05:37.204Z,2.69
2023-05-19T21:08:04.797Z,2.81
2023-05-19T21:10:32.386Z,2.62
2023-05-19T21:13:00.125Z,2.63
2023-05-19T21:15:29.487Z,2.95
2023-05-19T21:17:56.835Z,2.68
2023-05-19T21:20:24.374Z,2.80
2023-05-19T21:22:51.933Z,2.85
2023-05-19T21:25:19.262Z,3.05
2023-05-19T21:27:46.854Z,3.02
2023-05-19T21:30:14.460Z,2.94
2023-05-19T21:32:43.913Z,3.03
2023-05-19T21:35:11.275Z,2.98
2023-05-19T21:37:38.562Z,3.11
2023-05-19T21:40:07.152Z,2.70
2023-05-19T21:42:34.593Z,2.80
2023-05-19T21:45:02.309Z,2.73
2023-05-19T21:47:29.599Z,2.74
2023-05-19T21:49:58.323Z,2.97
2023-05-19T21:52:26.012Z,3.06
2023-05-19T21:54:53.131Z,3.15
2023-05-19T21:57:20.305Z,3.11
2023-05-19T21:59:47.792Z,3.12
2023-05-19T22:02:15.005Z,2.92
2023-05-19T22:04:42.216Z,2.94
2023-05-19T22:07:10.830Z,3.23
2023-05-19T22:09:38.006Z,2.97
2023-05-19T22:12:06.111Z,3.21
2023-05-19T22:14:33.813Z,3.12
2023-05-19T22:17:00.910Z,3.10
2023-05-19T22:19:28.091Z,2.79
2023-05-19T22:22:01.750Z,3.21
2023-05-19T22:24:38.931Z,2.95
2023-05-19T22:27:08.480Z,3.00
2023-05-19T22:29:36.828Z,3.25
2023-05-19T22:32:04.606Z,2.99
2023-05-19T22:34:31.941Z,2.97
2023-05-19T22:36:59.188Z,3.01
2023-05-19T22:39:26.328Z,3.16
2023-05-19T22:41:54.981Z,3.01
2023-05-19T22:44:22.274Z,3.17
2023-05-19T22:46:49.447Z,2.79
2023-05-19T22:49:16.767Z,2.93
2023-05-19T22:51:44.000Z,2.77
2023-05-19T22:54:11.247Z,2.85
2023-05-19T22:56:38.448Z,3.04
2023-05-19T22:59:06.991Z,2.97
2023-05-19T23:01:34.236Z,3.02
2023-05-19T23:04:01.805Z,2.90
2023-05-19T23:06:29.081Z,2.77
2023-05-19T23:09:00.765Z,3.04
2023-05-19T23:11:28.031Z,2.92
2023-05-19T23:13:55.236Z,2.97
2023-05-19T23:16:23.828Z,3.26
2023-05-19T23:18:51.047Z,3.13
2023-05-19T23:21:18.181Z,3.18
2023-05-19T23:23:45.506Z,3.18
2023-05-19T23:26:12.829Z,3.04
2023-05-19T23:28:41.423Z,3.21
2023-05-19T23:31:08.828Z,3.10
2023-05-19T23:33:37.507Z,3.33
2023-05-19T23:36:09.466Z,2.86
2023-05-19T23:38:38.429Z,3.05
2023-05-19T23:41:05.832Z,3.05
2023-05-19T23:43:33.013Z,3.33
2023-05-19T23:46:01.093Z,3.30
2023-05-19T23:48:29.019Z,3.13
2023-05-19T23:50:57.755Z,3.37
2023-05-19T23:53:25.032Z,3.28
2023-05-19T23:55:52.276Z,3.28
2023-05-19T23:58:19.557Z,3.33
